Bookmark and Share
Track history (hours):
 

Lehmann Sound

Last reported at 2014-Apr-23 23:30 UTC. Time now 2014-Apr-24 00:23 UTC.
Position N 53°27' W 003°01'.

; draft 5.8 m.

Type: Cargo ship. MMSI: 305476000.

NotesDate/timePositionNaut miles runAvg speedWind from/ knotsBaromVisibWave heightAir tempDewpointWater temp
2014-Apr-23 23:30N 53°27' W 003°01'0 0.0
2014-Apr-23 22:30N 53°27' W 003°01'0 0.0
2014-Apr-23 21:30N 53°27' W 003°01'0 0.0
2014-Apr-23 20:30N 53°27' W 003°01'0 0.0
2014-Apr-23 19:30N 53°27' W 003°01'0 0.0
2014-Apr-23 18:30N 53°27' W 003°01'0 0.0
2014-Apr-23 17:30N 53°27' W 003°01'0 0.0
2014-Apr-23 16:30N 53°27' W 003°01'0 0.0
2014-Apr-23 15:30N 53°27' W 003°01'0 0.0
2014-Apr-23 14:30N 53°27' W 003°01'0 0.0
2014-Apr-23 13:30N 53°27' W 003°01'0 0.0
2014-Apr-23 12:30N 53°27' W 003°01'0 0.0
2014-Apr-23 11:30N 53°27' W 003°01'0 0.0
2014-Apr-23 10:29N 53°27' W 003°01'0 0.0
2014-Apr-23 09:29N 53°27' W 003°01'0 0.0
2014-Apr-23 08:29N 53°27' W 003°01'0 0.0
2014-Apr-23 07:29N 53°27' W 003°01'0 0.0
2014-Apr-23 06:29N 53°27' W 003°01'0 0.0
2014-Apr-23 05:29N 53°27' W 003°01'0 0.0
2014-Apr-23 04:29N 53°27' W 003°01'0 0.0
2014-Apr-23 03:29N 53°27' W 003°01'0 0.0
2014-Apr-23 02:29N 53°27' W 003°01'0 0.0
2014-Apr-23 01:29N 53°27' W 003°01'0 0.0
2014-Apr-23 00:29N 53°27' W 003°01'0 0.0
2014-Apr-22 23:26N 53°27' W 003°01'0 0.0
2014-Apr-22 22:29N 53°27' W 003°01'0 0.0
2014-Apr-22 21:29N 53°27' W 003°01'0 0.0
2014-Apr-22 20:32N 53°27' W 003°01'0 0.0
2014-Apr-22 19:29N 53°27' W 003°01'0 0.0
2014-Apr-22 18:29N 53°27' W 003°01'0 0.0
2014-Apr-22 17:29N 53°27' W 003°01'0 0.0
2014-Apr-22 16:29N 53°27' W 003°01'0 0.0
2014-Apr-22 15:29N 53°27' W 003°01'0 0.0
2014-Apr-22 14:23N 53°27' W 003°01'0 0.0
2014-Apr-22 13:29N 53°27' W 003°01'0 0.0
2014-Apr-22 12:29N 53°27' W 003°01'0 0.0
2014-Apr-22 11:29N 53°27' W 003°01'0 0.0
2014-Apr-22 10:29N 53°27' W 003°01'0 0.0
2014-Apr-22 09:29N 53°27' W 003°01'0 0.0
2014-Apr-22 08:29N 53°27' W 003°01'0 0.0
2014-Apr-22 07:29N 53°27' W 003°01'0 0.0
2014-Apr-22 06:29N 53°27' W 003°01'0 0.0
2014-Apr-22 05:29N 53°27' W 003°01'0 0.0
2014-Apr-22 04:29N 53°27' W 003°01'0 0.0
2014-Apr-22 03:23N 53°27' W 003°01'0 0.0
2014-Apr-22 02:29N 53°27' W 003°01'0 0.0
2014-Apr-22 01:29N 53°27' W 003°01'0 0.0
2014-Apr-22 00:29N 53°27' W 003°01'0 0.0
2014-Apr-21 23:28N 53°27' W 003°01'0 0.0
2014-Apr-21 22:28N 53°27' W 003°01'0 0.0
2014-Apr-21 21:28N 53°27' W 003°01'0 0.0
2014-Apr-21 20:28N 53°27' W 003°01'0 0.0
2014-Apr-21 19:28N 53°27' W 003°01'0 0.0
2014-Apr-21 18:22N 53°27' W 003°01'0 0.0
2014-Apr-21 17:28N 53°27' W 003°01'0 0.0
2014-Apr-21 16:28N 53°27' W 003°01'0 0.0
2014-Apr-21 15:28N 53°27' W 003°01'0 0.0
2014-Apr-21 14:28N 53°27' W 003°01'0 0.0
2014-Apr-21 13:28N 53°27' W 003°01'0 0.0
2014-Apr-21 12:28N 53°27' W 003°01'0 0.0
2014-Apr-21 11:28N 53°27' W 003°01'0 0.0
2014-Apr-21 10:28N 53°27' W 003°01'0 0.0
2014-Apr-21 09:16N 53°27' W 003°01'0 0.0
2014-Apr-21 08:28N 53°27' W 003°01'0 0.0
2014-Apr-20 21:13N 53°27' W 003°01'0 0.0
2014-Apr-18 23:11N 53°27' W 003°01'1 0.2
2014-Apr-18 14:30N 53°28' W 003°03'8 8.2
2014-Apr-18 13:29N 53°31' W 003°16'7 7.2
2014-Apr-18 12:33N 53°31' W 003°27'8 7.2
2014-Apr-18 11:31N 53°31' W 003°39'  
2014-Apr-15 19:12N 43°47' W 001°45'710.6
2014-Apr-15 18:33N 43°41' W 001°40'1010.3
2014-Apr-15 17:33N 43°32' W 001°33'3 2.7
2014-Apr-15 16:33N 43°30' W 001°29'0 0.0
2014-Apr-15 15:33N 43°30' W 001°29'0 0.0
2014-Apr-15 14:30N 43°30' W 001°29'0 0.0
2014-Apr-15 12:33N 43°30' W 001°29'0 0.0
2014-Apr-15 11:33N 43°30' W 001°29'0 0.0
2014-Apr-15 10:33N 43°30' W 001°29'0 0.0
2014-Apr-15 09:33N 43°30' W 001°29'0 0.0
2014-Apr-15 08:33N 43°30' W 001°29'0 0.0
2014-Apr-15 07:33N 43°30' W 001°29'0 0.0
2014-Apr-15 06:33N 43°30' W 001°29'0 0.0
2014-Apr-15 05:33N 43°30' W 001°29'0 0.0
2014-Apr-15 03:33N 43°30' W 001°29'0 0.0
2014-Apr-15 02:33N 43°30' W 001°29'0 0.0
2014-Apr-15 01:33N 43°30' W 001°29'0 0.0
2014-Apr-15 00:33N 43°30' W 001°29'0 0.0
2014-Apr-14 23:33N 43°30' W 001°29'0 0.0
2014-Apr-14 22:33N 43°30' W 001°29'0 0.0
2014-Apr-14 21:33N 43°30' W 001°29'0 0.0
2014-Apr-14 20:33N 43°30' W 001°29'0 0.0
2014-Apr-14 19:33N 43°30' W 001°29'0 0.0
2014-Apr-14 18:33N 43°30' W 001°29'0 0.0
2014-Apr-14 17:32N 43°30' W 001°29'0 0.0
2014-Apr-14 16:32N 43°30' W 001°29'0 0.0
2014-Apr-14 15:32N 43°30' W 001°29'0 0.0
2014-Apr-14 14:32N 43°30' W 001°29'0 0.0
2014-Apr-14 13:32N 43°30' W 001°29'0 0.0
2014-Apr-14 11:32N 43°30' W 001°29'0 0.0
2014-Apr-14 10:32N 43°30' W 001°29'0 0.0
2014-Apr-14 09:32N 43°30' W 001°29'0 0.0
2014-Apr-14 08:32N 43°30' W 001°29'0 0.0
2014-Apr-14 07:32N 43°30' W 001°29'0 0.0
2014-Apr-14 06:32N 43°30' W 001°29'0 0.0
2014-Apr-14 05:32N 43°30' W 001°29'  

Dump ship's entire track history

sailing weather and tide predictions

Lehmann Sound — V2EM3 — position and weather